createdAt,value
2023-04-01T00:01:30.689Z,8.96
2023-04-01T00:04:00.302Z,8.96
2023-04-01T00:06:29.628Z,9.04
2023-04-01T00:08:58.608Z,9.12
2023-04-01T00:11:28.524Z,9.17
2023-04-01T00:13:57.419Z,9.13
2023-04-01T00:16:26.466Z,9.07
2023-04-01T00:18:55.511Z,9.03
2023-04-01T00:21:24.890Z,9.04
2023-04-01T00:23:53.819Z,9.06
2023-04-01T00:26:23.194Z,9.04
2023-04-01T00:28:52.359Z,9.06
2023-04-01T00:31:21.826Z,9.09
2023-04-01T00:33:52.697Z,9.06
2023-04-01T00:36:23.074Z,9.05
2023-04-01T00:38:52.806Z,9.01
2023-04-01T00:41:22.693Z,8.99
2023-04-01T00:43:52.578Z,8.99
2023-04-01T00:46:21.568Z,9.02
2023-04-01T00:48:55.075Z,9.01
2023-04-01T00:51:30.707Z,8.99
2023-04-01T00:54:02.916Z,8.94
2023-04-01T00:56:37.869Z,8.94
2023-04-01T00:59:20.109Z,8.97
2023-04-01T01:01:49.232Z,8.97
2023-04-01T01:04:33.981Z,8.97
2023-04-01T01:07:05.706Z,9.00
2023-04-01T01:09:59.380Z,8.96
2023-04-01T01:12:43.420Z,8.89
2023-04-01T01:15:27.080Z,8.84
2023-04-01T01:18:06.424Z,8.87
2023-04-01T01:21:00.180Z,8.92
2023-04-01T01:23:54.217Z,8.96
2023-04-01T01:26:35.593Z,8.95
2023-04-01T01:29:25.883Z,8.88
2023-04-01T01:32:39.639Z,8.87
2023-04-01T01:35:31.702Z,8.91
2023-04-01T01:38:09.614Z,8.92
2023-04-01T01:40:42.222Z,8.91
2023-04-01T01:43:15.283Z,8.89
2023-04-01T01:45:55.893Z,8.89
2023-04-01T01:48:27.748Z,8.91
2023-04-01T01:50:57.247Z,8.97
2023-04-01T01:53:26.527Z,9.02
2023-04-01T01:55:55.524Z,8.98
2023-04-01T01:58:41.781Z,8.99
2023-04-01T02:01:36.564Z,8.97
2023-04-01T02:04:06.485Z,8.86
2023-04-01T02:06:39.494Z,8.81
2023-04-01T02:09:11.883Z,8.77
2023-04-01T02:12:00.420Z,8.81
2023-04-01T02:14:38.357Z,8.79
2023-04-01T02:17:15.611Z,8.78
2023-04-01T02:19:58.027Z,8.74
2023-04-01T02:22:30.630Z,8.72
2023-04-01T02:25:03.823Z,8.72
2023-04-01T02:27:33.139Z,8.79
2023-04-01T02:30:02.224Z,8.87
2023-04-01T02:32:34.678Z,8.88
2023-04-01T02:35:06.967Z,8.90
2023-04-01T02:37:36.844Z,8.85
2023-04-01T02:40:09.559Z,8.78
2023-04-01T02:42:39.583Z,8.86
2023-04-01T02:45:09.707Z,8.87
2023-04-01T02:47:38.640Z,8.87
2023-04-01T02:50:08.994Z,8.89
2023-04-01T02:52:38.034Z,8.87
2023-04-01T02:55:08.171Z,8.87
2023-04-01T02:57:37.076Z,8.86
2023-04-01T03:00:12.143Z,8.84
2023-04-01T03:02:41.211Z,8.85
2023-04-01T03:05:10.200Z,8.86
2023-04-01T03:07:39.698Z,8.82
2023-04-01T03:10:09.149Z,8.78
2023-04-01T03:12:38.181Z,8.77
2023-04-01T03:15:11.208Z,8.75
2023-04-01T03:17:41.175Z,8.81
2023-04-01T03:20:11.881Z,8.86
2023-04-01T03:22:42.852Z,8.84
2023-04-01T03:25:12.467Z,8.80
2023-04-01T03:27:41.772Z,8.77
2023-04-01T03:30:11.114Z,8.75
2023-04-01T03:32:40.254Z,8.75
2023-04-01T03:35:10.814Z,8.75
2023-04-01T03:37:39.809Z,8.80
2023-04-01T03:40:09.831Z,8.80
2023-04-01T03:42:38.857Z,8.91
2023-04-01T03:45:08.329Z,8.95
2023-04-01T03:47:37.301Z,8.93
2023-04-01T03:50:07.940Z,8.88
2023-04-01T03:52:36.962Z,8.84
2023-04-01T03:55:07.115Z,8.84
2023-04-01T03:57:36.112Z,8.84
2023-04-01T04:00:05.581Z,8.78
2023-04-01T04:02:34.587Z,8.77
2023-04-01T04:05:03.837Z,8.77
2023-04-01T04:07:35.166Z,8.82
2023-04-01T04:10:04.858Z,8.87
2023-04-01T04:12:33.812Z,8.90
2023-04-01T04:15:02.742Z,8.95
2023-04-01T04:17:31.678Z,9.01
2023-04-01T04:20:00.796Z,9.01
2023-04-01T04:22:29.751Z,8.92
2023-04-01T04:24:58.638Z,8.86
2023-04-01T04:27:27.508Z,8.86
2023-04-01T04:29:56.407Z,8.89
2023-04-01T04:32:25.579Z,8.87
2023-04-01T04:34:54.489Z,8.85
2023-04-01T04:37:23.587Z,8.85
2023-04-01T04:39:52.926Z,8.87
2023-04-01T04:42:21.833Z,8.92
2023-04-01T04:44:50.731Z,8.93
2023-04-01T04:47:19.702Z,8.99
2023-04-01T04:49:48.614Z,9.07
2023-04-01T04:52:17.515Z,9.01
2023-04-01T04:54:46.453Z,9.03
2023-04-01T04:57:15.679Z,9.00
2023-04-01T04:59:44.582Z,9.03
2023-04-01T05:02:13.735Z,9.08
2023-04-01T05:04:42.849Z,9.01
2023-04-01T05:07:12.435Z,8.98
2023-04-01T05:09:41.717Z,9.01
2023-04-01T05:12:10.721Z,9.03
2023-04-01T05:14:40.356Z,9.06
2023-04-01T05:17:11.815Z,9.11
2023-04-01T05:19:41.201Z,9.12
2023-04-01T05:22:10.110Z,9.14
2023-04-01T05:24:39.012Z,9.13
2023-04-01T05:27:07.910Z,9.09
2023-04-01T05:29:36.866Z,9.08
2023-04-01T05:32:05.741Z,9.19
2023-04-01T05:34:34.694Z,9.28
2023-04-01T05:37:03.586Z,9.33
2023-04-01T05:39:32.465Z,9.36
2023-04-01T05:42:01.369Z,9.38
2023-04-01T05:44:30.362Z,9.42
2023-04-01T05:46:59.225Z,9.44
2023-04-01T05:49:28.924Z,9.54
2023-04-01T05:51:58.291Z,9.47
2023-04-01T05:54:27.227Z,9.42
2023-04-01T05:56:56.180Z,9.47
2023-04-01T05:59:25.099Z,9.46
2023-04-01T06:01:54.190Z,9.43
2023-04-01T06:04:23.372Z,9.42
2023-04-01T06:06:52.964Z,9.51
2023-04-01T06:09:31.400Z,9.50
2023-04-01T06:12:06.343Z,9.53
2023-04-01T06:14:47.589Z,9.49
2023-04-01T06:17:31.512Z,9.37
2023-04-01T06:20:22.250Z,9.32
2023-04-01T06:23:03.267Z,9.40
2023-04-01T06:25:50.563Z,9.48
2023-04-01T06:28:38.301Z,9.42
2023-04-01T06:31:27.440Z,9.35
2023-04-01T06:34:11.707Z,9.29
2023-04-01T06:36:48.932Z,9.29
2023-04-01T06:39:31.542Z,9.29
2023-04-01T06:42:15.485Z,9.35
2023-04-01T06:44:51.344Z,9.47
2023-04-01T06:47:32.345Z,9.41
2023-04-01T06:50:10.342Z,9.36
2023-04-01T06:53:02.476Z,9.42
2023-04-01T06:55:56.907Z,9.57
2023-04-01T06:58:41.371Z,9.69
2023-04-01T07:01:23.918Z,9.75
2023-04-01T07:03:56.613Z,9.68
2023-04-01T07:06:33.726Z,9.60
2023-04-01T07:09:11.244Z,9.56
2023-04-01T07:11:41.514Z,9.65
2023-04-01T07:14:29.883Z,9.61
2023-04-01T07:17:12.614Z,9.63
2023-04-01T07:19:46.093Z,9.61
2023-04-01T07:22:37.814Z,9.66
2023-04-01T07:25:17.816Z,9.70
2023-04-01T07:27:47.063Z,9.72
2023-04-01T07:30:18.315Z,9.79
2023-04-01T07:33:01.750Z,9.75
2023-04-01T07:35:36.998Z,9.88
2023-04-01T07:38:23.589Z,9.88
2023-04-01T07:40:55.242Z,9.83
2023-04-01T07:43:39.244Z,9.87
2023-04-01T07:46:24.857Z,9.87
2023-04-01T07:48:53.732Z,9.88
2023-04-01T07:51:37.470Z,9.87
2023-04-01T07:54:18.774Z,9.94
2023-04-01T07:56:54.160Z,9.92
2023-04-01T07:59:35.285Z,9.84
2023-04-01T08:02:32.224Z,9.91
2023-04-01T08:05:19.404Z,9.93
2023-04-01T08:07:57.868Z,9.87
2023-04-01T08:10:53.492Z,9.81
2023-04-01T08:13:40.553Z,9.87
2023-04-01T08:16:20.619Z,9.98
2023-04-01T08:18:55.552Z,10.08
2023-04-01T08:21:50.123Z,10.11
2023-04-01T08:24:47.571Z,10.18
2023-04-01T08:27:26.080Z,10.17
2023-04-01T08:30:16.032Z,10.14
2023-04-01T08:32:51.017Z,10.22
2023-04-01T08:35:43.368Z,10.29
2023-04-01T08:38:19.088Z,10.35
2023-04-01T08:40:50.975Z,10.45
2023-04-01T08:43:29.172Z,10.64
2023-04-01T08:46:04.537Z,10.84
2023-04-01T08:48:36.432Z,11.00
2023-04-01T08:51:17.797Z,11.16
2023-04-01T08:54:01.782Z,11.22
2023-04-01T08:56:36.780Z,11.26
2023-04-01T08:59:41.507Z,11.30
2023-04-01T09:02:32.461Z,11.39
2023-04-01T09:05:12.532Z,11.45
2023-04-01T09:07:54.956Z,11.40
2023-04-01T09:10:45.689Z,11.41
2023-04-01T09:13:28.037Z,11.34
2023-04-01T09:16:30.835Z,11.43
2023-04-01T09:19:18.072Z,11.54
2023-04-01T09:22:11.529Z,11.53
2023-04-01T09:25:01.997Z,11.42
2023-04-01T09:27:38.362Z,11.39
2023-04-01T09:30:20.308Z,11.24
2023-04-01T09:33:24.623Z,11.14
2023-04-01T09:36:12.440Z,11.00
2023-04-01T09:38:50.195Z,10.97
2023-04-01T09:41:41.648Z,10.99
2023-04-01T09:44:24.759Z,10.99
2023-04-01T09:47:18.245Z,10.88
2023-04-01T09:50:07.832Z,10.92
2023-04-01T09:52:53.318Z,11.15
2023-04-01T09:55:59.636Z,11.34
2023-04-01T09:58:46.781Z,11.40
2023-04-01T10:01:32.430Z,11.37
2023-04-01T10:04:43.352Z,11.17
2023-04-01T10:07:15.009Z,10.92
2023-04-01T10:10:06.660Z,10.79
2023-04-01T10:12:50.596Z,10.81
2023-04-01T10:15:25.586Z,10.90
2023-04-01T10:18:16.370Z,10.98
2023-04-01T10:21:24.720Z,11.03
2023-04-01T10:24:18.443Z,11.07
2023-04-01T10:26:55.542Z,10.97
2023-04-01T10:29:56.634Z,10.87
2023-04-01T10:32:57.003Z,10.84
2023-04-01T10:35:44.905Z,10.73
2023-04-01T10:38:26.902Z,10.71
2023-04-01T10:41:02.929Z,10.77
2023-04-01T10:43:51.061Z,10.81
2023-04-01T10:46:38.265Z,10.76
2023-04-01T10:49:36.470Z,10.62
2023-04-01T10:52:28.918Z,10.49
2023-04-01T10:55:19.623Z,10.40
2023-04-01T10:57:54.694Z,10.36
2023-04-01T11:00:35.587Z,10.34
2023-04-01T11:03:07.482Z,10.30
2023-04-01T11:05:52.183Z,10.28
2023-04-01T11:08:43.696Z,10.26
2023-04-01T11:11:24.850Z,10.23
2023-04-01T11:14:27.844Z,10.23
2023-04-01T11:17:32.114Z,10.32
2023-04-01T11:20:12.909Z,10.47
2023-04-01T11:22:51.121Z,10.59
2023-04-01T11:25:53.987Z,10.68
2023-04-01T11:28:37.928Z,10.72
2023-04-01T11:31:34.225Z,10.74
2023-04-01T11:34:30.821Z,10.82
2023-04-01T11:37:24.361Z,10.86
2023-04-01T11:40:30.240Z,10.72
2023-04-01T11:43:17.263Z,10.68
2023-04-01T11:46:18.485Z,10.65
2023-04-01T11:48:54.284Z,10.60
2023-04-01T11:51:38.092Z,10.55
2023-04-01T11:54:45.771Z,10.50
2023-04-01T11:57:26.982Z,10.48
2023-04-01T12:00:13.436Z,10.41
2023-04-01T12:03:15.702Z,10.35
2023-04-01T12:05:59.636Z,10.26
2023-04-01T12:08:58.035Z,10.18
2023-04-01T12:12:10.070Z,10.18
2023-04-01T12:15:17.215Z,10.27
2023-04-01T12:18:04.490Z,10.26
2023-04-01T12:21:07.075Z,10.25
2023-04-01T12:23:57.570Z,10.28
2023-04-01T12:26:32.007Z,10.30
2023-04-01T12:29:29.962Z,10.33
2023-04-01T12:32:01.610Z,10.30
2023-04-01T12:34:42.598Z,10.25
2023-04-01T12:37:19.006Z,10.21
2023-04-01T12:39:59.841Z,10.22
2023-04-01T12:42:53.120Z,10.31
2023-04-01T12:45:35.522Z,10.38
2023-04-01T12:48:18.930Z,10.52
2023-04-01T12:50:57.949Z,10.57
2023-04-01T12:53:37.659Z,10.55
2023-04-01T12:56:15.874Z,10.53
2023-04-01T12:59:21.788Z,10.42
2023-04-01T13:02:06.546Z,10.27
2023-04-01T13:05:13.813Z,10.18
2023-04-01T13:08:20.616Z,10.07
2023-04-01T13:11:08.614Z,9.95
2023-04-01T13:13:48.462Z,9.79
2023-04-01T13:16:37.403Z,9.66
2023-04-01T13:19:34.034Z,9.65
2023-04-01T13:22:11.865Z,9.62
2023-04-01T13:25:01.604Z,9.57
2023-04-01T13:27:42.384Z,9.56
2023-04-01T13:30:40.746Z,9.57
2023-04-01T13:33:47.987Z,9.60
2023-04-01T13:36:39.094Z,9.62
2023-04-01T13:39:26.566Z,9.63
2023-04-01T13:42:04.703Z,9.69
2023-04-01T13:44:33.561Z,9.72
2023-04-01T13:47:47.633Z,9.82
2023-04-01T13:50:35.427Z,9.89
2023-04-01T13:53:23.345Z,9.90
2023-04-01T13:56:17.705Z,9.89
2023-04-01T13:59:01.785Z,9.75
2023-04-01T14:01:48.998Z,9.70
2023-04-01T14:04:43.758Z,9.74
2023-04-01T14:07:24.554Z,9.81
2023-04-01T14:09:59.070Z,9.86
2023-04-01T14:12:41.209Z,9.91
2023-04-01T14:15:24.514Z,9.97
2023-04-01T14:18:02.499Z,10.00
2023-04-01T14:20:56.142Z,10.02
2023-04-01T14:23:39.051Z,10.03
2023-04-01T14:26:22.761Z,9.90
2023-04-01T14:29:13.554Z,9.89
2023-04-01T14:32:04.089Z,9.80
2023-04-01T14:34:46.211Z,9.76
2023-04-01T14:37:44.102Z,9.78
2023-04-01T14:40:46.026Z,9.75
2023-04-01T14:43:26.876Z,9.69
2023-04-01T14:46:18.014Z,9.67
2023-04-01T14:49:05.406Z,9.59
2023-04-01T14:51:40.595Z,9.44
2023-04-01T14:54:09.440Z,9.35
2023-04-01T14:56:48.904Z,9.38
2023-04-01T14:59:23.900Z,9.35
2023-04-01T15:01:58.690Z,9.25
2023-04-01T15:04:51.525Z,9.14
2023-04-01T15:07:54.814Z,9.16
2023-04-01T15:10:36.091Z,9.16
2023-04-01T15:13:47.207Z,9.10
2023-04-01T15:16:16.185Z,9.04
2023-04-01T15:19:09.032Z,9.02
2023-04-01T15:21:53.501Z,9.01
2023-04-01T15:24:30.466Z,8.93
2023-04-01T15:27:14.709Z,8.88
2023-04-01T15:30:14.786Z,8.95
2023-04-01T15:33:11.804Z,8.94
2023-04-01T15:35:46.711Z,8.93
2023-04-01T15:38:16.452Z,8.91
2023-04-01T15:40:52.645Z,8.86
2023-04-01T15:43:33.575Z,8.90
2023-04-01T15:46:17.505Z,8.97
2023-04-01T15:48:52.106Z,8.96
2023-04-01T15:51:45.034Z,8.99
2023-04-01T15:54:14.099Z,8.94
2023-04-01T15:56:57.532Z,8.92
2023-04-01T15:59:51.168Z,8.91
2023-04-01T16:02:31.479Z,8.94
2023-04-01T16:05:07.216Z,8.97
2023-04-01T16:08:07.154Z,8.95
2023-04-01T16:10:54.318Z,8.94
2023-04-01T16:13:29.101Z,8.91
2023-04-01T16:15:58.093Z,8.95
2023-04-01T16:18:43.918Z,8.93
2023-04-01T16:21:23.399Z,8.88
2023-04-01T16:24:39.344Z,8.88
2023-04-01T16:27:23.623Z,8.82
2023-04-01T16:30:21.290Z,8.73
2023-04-01T16:33:06.396Z,8.69
2023-04-01T16:35:50.525Z,8.67
2023-04-01T16:38:33.760Z,8.64
2023-04-01T16:42:00.849Z,8.69
2023-04-01T16:44:31.020Z,8.69
2023-04-01T16:47:09.623Z,8.63
2023-04-01T16:49:56.642Z,8.58
2023-04-01T16:53:01.026Z,8.57
2023-04-01T16:55:42.829Z,8.62
2023-04-01T16:58:21.253Z,8.61
2023-04-01T17:00:56.625Z,8.52
2023-04-01T17:03:44.910Z,8.42
2023-04-01T17:06:44.146Z,8.34
2023-04-01T17:10:01.412Z,8.27
2023-04-01T17:12:36.061Z,8.27
2023-04-01T17:15:32.722Z,8.26
2023-04-01T17:18:38.161Z,8.29
2023-04-01T17:21:26.674Z,8.26
2023-04-01T17:24:25.615Z,8.19
2023-04-01T17:27:12.518Z,8.12
2023-04-01T17:30:05.536Z,8.09
2023-04-01T17:32:37.774Z,8.16
2023-04-01T17:35:23.745Z,8.10
2023-04-01T17:38:34.416Z,8.03
2023-04-01T17:41:47.720Z,7.96
2023-04-01T17:44:29.304Z,7.79
2023-04-01T17:47:23.678Z,7.73
2023-04-01T17:50:22.510Z,7.69
2023-04-01T17:52:51.321Z,7.65
2023-04-01T17:55:38.141Z,7.62
2023-04-01T17:58:23.883Z,7.55
2023-04-01T18:01:41.356Z,7.47
2023-04-01T18:04:23.583Z,7.40
2023-04-01T18:07:08.651Z,7.36
2023-04-01T18:09:40.516Z,7.38
2023-04-01T18:12:27.797Z,7.41
2023-04-01T18:15:14.985Z,7.39
2023-04-01T18:18:10.489Z,7.30
2023-04-01T18:20:51.690Z,7.25
2023-04-01T18:24:02.403Z,7.17
2023-04-01T18:26:38.282Z,7.12
2023-04-01T18:29:38.424Z,7.11
2023-04-01T18:32:27.704Z,7.07
2023-04-01T18:35:03.628Z,7.05
2023-04-01T18:38:04.494Z,7.03
2023-04-01T18:40:37.878Z,6.97
2023-04-01T18:43:17.375Z,6.90
2023-04-01T18:46:00.954Z,6.84
2023-04-01T18:48:35.498Z,6.84
2023-04-01T18:51:11.576Z,6.83
2023-04-01T18:53:42.796Z,6.81
2023-04-01T18:56:16.403Z,6.76
2023-04-01T18:59:00.344Z,6.72
2023-04-01T19:01:39.273Z,6.69
2023-04-01T19:04:42.804Z,6.66
2023-04-01T19:07:29.742Z,6.62
2023-04-01T19:10:13.702Z,6.62
2023-04-01T19:13:30.777Z,6.70
2023-04-01T19:16:12.170Z,6.66
2023-04-01T19:18:56.411Z,6.61
2023-04-01T19:21:44.427Z,6.49
2023-04-01T19:24:25.307Z,6.40
2023-04-01T19:27:13.201Z,6.37
2023-04-01T19:30:13.151Z,6.36
2023-04-01T19:33:02.639Z,6.29
2023-04-01T19:35:45.703Z,6.26
2023-04-01T19:38:41.219Z,6.21
2023-04-01T19:41:23.030Z,6.11
2023-04-01T19:44:19.268Z,6.07
2023-04-01T19:46:56.302Z,6.13
2023-04-01T19:50:10.053Z,6.18
2023-04-01T19:52:42.227Z,6.13
2023-04-01T19:55:11.072Z,6.07
2023-04-01T19:57:57.917Z,6.00
2023-04-01T20:00:38.935Z,5.94
2023-04-01T20:03:42.056Z,5.94
2023-04-01T20:06:20.167Z,5.98
2023-04-01T20:09:24.215Z,6.03
2023-04-01T20:12:37.767Z,6.05
2023-04-01T20:15:36.415Z,6.00
2023-04-01T20:18:14.876Z,5.93
2023-04-01T20:20:55.932Z,5.88
2023-04-01T20:23:42.738Z,5.90
2023-04-01T20:26:14.041Z,5.99
2023-04-01T20:28:42.878Z,6.06
2023-04-01T20:31:30.617Z,6.03
2023-04-01T20:34:25.388Z,5.93
2023-04-01T20:37:23.017Z,5.85
2023-04-01T20:40:03.122Z,5.80
2023-04-01T20:42:44.318Z,5.79
2023-04-01T20:45:47.081Z,5.78
2023-04-01T20:48:37.574Z,5.78
2023-04-01T20:51:13.363Z,5.76
2023-04-01T20:53:55.427Z,5.72
2023-04-01T20:56:41.647Z,5.67
2023-04-01T20:59:16.332Z,5.54
2023-04-01T21:02:10.356Z,5.50
2023-04-01T21:05:31.053Z,5.51
2023-04-01T21:08:18.231Z,5.50
2023-04-01T21:11:16.964Z,5.42
2023-04-01T21:14:02.861Z,5.38
2023-04-01T21:16:54.185Z,5.31
2023-04-01T21:19:35.186Z,5.25
2023-04-01T21:22:13.151Z,5.33
2023-04-01T21:25:04.341Z,5.36
2023-04-01T21:27:39.102Z,5.29
2023-04-01T21:30:16.961Z,5.19
2023-04-01T21:33:07.405Z,5.12
2023-04-01T21:35:51.137Z,5.13
2023-04-01T21:38:32.231Z,5.14
2023-04-01T21:41:17.456Z,5.14
2023-04-01T21:44:01.500Z,5.14
2023-04-01T21:46:56.698Z,5.12
2023-04-01T21:49:28.600Z,5.09
2023-04-01T21:52:11.894Z,5.07
2023-04-01T21:54:44.352Z,5.13
2023-04-01T21:57:25.527Z,5.15
2023-04-01T22:00:14.381Z,5.21
2023-04-01T22:03:20.137Z,5.19
2023-04-01T22:06:07.483Z,5.13
2023-04-01T22:08:39.878Z,5.06
2023-04-01T22:11:33.456Z,5.02
2023-04-01T22:14:11.704Z,5.01
2023-04-01T22:16:52.932Z,5.01
2023-04-01T22:19:40.874Z,4.96
2023-04-01T22:22:18.671Z,4.89
2023-04-01T22:24:56.780Z,4.83
2023-04-01T22:27:34.775Z,4.80
2023-04-01T22:30:12.835Z,4.80
2023-04-01T22:32:48.054Z,4.82
2023-04-01T22:35:19.655Z,4.79
2023-04-01T22:37:51.698Z,4.78
2023-04-01T22:40:52.656Z,4.70
2023-04-01T22:43:42.820Z,4.61
2023-04-01T22:46:17.810Z,4.60
2023-04-01T22:49:10.745Z,4.60
2023-04-01T22:51:48.898Z,4.60
2023-04-01T22:54:36.267Z,4.51
2023-04-01T22:57:13.293Z,4.43
2023-04-01T23:00:01.783Z,4.36
2023-04-01T23:03:05.886Z,4.25
2023-04-01T23:05:42.006Z,4.23
2023-04-01T23:08:29.596Z,4.30
2023-04-01T23:11:06.183Z,4.34
2023-04-01T23:13:49.467Z,4.33
2023-04-01T23:16:24.810Z,4.32
2023-04-01T23:19:06.311Z,4.30
2023-04-01T23:21:53.312Z,4.27
2023-04-01T23:24:48.888Z,4.28
2023-04-01T23:27:26.819Z,4.23
2023-04-01T23:29:55.949Z,4.18
2023-04-01T23:32:27.475Z,4.16
2023-04-01T23:34:59.548Z,4.10
2023-04-01T23:37:28.565Z,4.04
2023-04-01T23:39:59.576Z,4.00
2023-04-01T23:42:32.349Z,4.03
2023-04-01T23:45:18.235Z,4.05
2023-04-01T23:47:50.583Z,4.05
2023-04-01T23:50:23.440Z,4.04
2023-04-01T23:53:12.809Z,4.08
2023-04-01T23:55:43.031Z,4.06
2023-04-01T23:58:27.423Z,4.03
